createdAt,value
2018-06-23T00:00:44.363Z,13.18
2018-06-23T00:01:44.282Z,13.04
2018-06-23T00:02:44.209Z,12.96
2018-06-23T00:03:44.124Z,12.94
2018-06-23T00:04:44.060Z,12.94
2018-06-23T00:05:43.978Z,12.94
2018-06-23T00:06:43.925Z,12.81
2018-06-23T00:07:43.827Z,12.81
2018-06-23T00:08:43.758Z,12.71
2018-06-23T00:09:43.674Z,12.63
2018-06-23T00:10:43.608Z,12.63
2018-06-23T00:11:43.523Z,12.61
2018-06-23T00:12:43.452Z,12.66
2018-06-23T00:13:43.366Z,12.60
2018-06-23T00:14:43.301Z,12.67
2018-06-23T00:15:43.221Z,12.69
2018-06-23T00:16:43.152Z,12.67
2018-06-23T00:17:43.074Z,12.70
2018-06-23T00:18:42.997Z,12.66
2018-06-23T00:19:42.919Z,12.64
2018-06-23T00:20:42.854Z,12.63
2018-06-23T00:21:42.767Z,12.64
2018-06-23T00:22:42.702Z,12.56
2018-06-23T00:23:42.614Z,12.44
2018-06-23T00:24:42.550Z,12.46
2018-06-23T00:25:42.463Z,12.52
2018-06-23T00:26:42.392Z,12.45
2018-06-23T00:27:42.310Z,12.30
2018-06-23T00:28:43.243Z,12.31
2018-06-23T00:29:42.159Z,12.18
2018-06-23T00:30:43.094Z,12.05
2018-06-23T00:31:42.007Z,11.95
2018-06-23T00:32:41.941Z,11.79
2018-06-23T00:33:41.852Z,11.81
2018-06-23T00:34:41.790Z,11.56
2018-06-23T00:35:41.702Z,11.47
2018-06-23T00:36:41.633Z,11.38
2018-06-23T00:37:41.551Z,11.31
2018-06-23T00:38:41.481Z,11.14
2018-06-23T00:39:41.400Z,11.11
2018-06-23T00:40:41.332Z,11.10
2018-06-23T00:41:41.250Z,11.08
2018-06-23T00:42:41.180Z,11.13
2018-06-23T00:43:41.095Z,11.16
2018-06-23T00:44:41.023Z,11.16
2018-06-23T00:45:40.945Z,11.14
2018-06-23T00:46:40.874Z,11.06
2018-06-23T00:47:40.790Z,11.20
2018-06-23T00:48:40.718Z,11.14
2018-06-23T00:49:40.632Z,11.23
2018-06-23T00:50:40.574Z,11.18
2018-06-23T00:51:40.486Z,11.18
2018-06-23T00:52:40.419Z,11.11
2018-06-23T00:53:40.340Z,11.16
2018-06-23T00:54:40.255Z,10.99
2018-06-23T00:55:40.189Z,10.85
2018-06-23T00:56:40.103Z,10.92
2018-06-23T00:57:40.034Z,10.87
2018-06-23T00:58:39.951Z,10.93
2018-06-23T00:59:39.880Z,10.93
2018-06-23T01:00:39.797Z,10.87
2018-06-23T01:01:39.729Z,11.11
2018-06-23T01:02:39.644Z,10.98
2018-06-23T01:03:39.576Z,11.08
2018-06-23T01:04:39.491Z,11.13
2018-06-23T01:05:39.422Z,11.08
2018-06-23T01:06:39.340Z,11.06
2018-06-23T01:07:39.276Z,11.17
2018-06-23T01:08:39.186Z,11.16
2018-06-23T01:09:39.121Z,11.10
2018-06-23T01:10:39.033Z,11.13
2018-06-23T01:11:38.963Z,11.03
2018-06-23T01:12:38.878Z,10.91
2018-06-23T01:13:38.808Z,10.75
2018-06-23T01:14:38.723Z,10.69
2018-06-23T01:15:38.658Z,10.69
2018-06-23T01:16:38.568Z,10.53
2018-06-23T01:17:38.504Z,10.43
2018-06-23T01:18:38.422Z,10.44
2018-06-23T01:19:38.351Z,10.29
2018-06-23T01:20:38.268Z,10.08
2018-06-23T01:21:38.196Z,10.06
2018-06-23T01:22:38.112Z,9.96
2018-06-23T01:23:38.049Z,9.96
2018-06-23T01:24:37.958Z,9.86
2018-06-23T01:25:37.891Z,9.86
2018-06-23T01:26:37.807Z,9.90
2018-06-23T01:27:37.735Z,9.92
2018-06-23T01:28:37.651Z,9.90
2018-06-23T01:29:37.587Z,10.04
2018-06-23T01:30:37.496Z,10.04
2018-06-23T01:31:37.426Z,10.08
2018-06-23T01:32:37.343Z,10.03
2018-06-23T01:33:37.274Z,10.06
2018-06-23T01:34:37.192Z,10.13
2018-06-23T01:35:37.120Z,10.08
2018-06-23T01:36:37.036Z,10.06
2018-06-23T01:37:36.967Z,9.96
2018-06-23T01:38:36.882Z,9.96
2018-06-23T01:39:36.815Z,10.06
2018-06-23T01:40:36.729Z,9.92
2018-06-23T01:41:36.660Z,9.97
2018-06-23T01:42:36.579Z,9.96
2018-06-23T01:43:36.502Z,10.00
2018-06-23T01:44:36.420Z,9.90
2018-06-23T01:45:36.353Z,9.88
2018-06-23T01:46:36.269Z,9.89
2018-06-23T01:47:36.196Z,9.86
2018-06-23T01:48:36.112Z,9.78
2018-06-23T01:49:36.047Z,9.78
2018-06-23T01:50:35.963Z,9.80
2018-06-23T01:51:35.891Z,9.71
2018-06-23T01:52:35.804Z,9.63
2018-06-23T01:53:35.735Z,9.65
2018-06-23T01:54:35.647Z,9.83
2018-06-23T01:55:35.581Z,9.80
2018-06-23T01:56:35.495Z,9.79
2018-06-23T01:57:35.434Z,9.85
2018-06-23T01:58:35.341Z,9.90
2018-06-23T01:59:35.272Z,10.04
2018-06-23T02:00:35.187Z,10.01
2018-06-23T02:01:35.115Z,10.06
2018-06-23T02:02:35.037Z,10.03
2018-06-23T02:03:35.963Z,10.00
2018-06-23T02:04:34.879Z,10.01
2018-06-23T02:05:34.809Z,10.10
2018-06-23T02:06:34.725Z,10.08
2018-06-23T02:07:34.654Z,10.07
2018-06-23T02:08:34.571Z,10.04
2018-06-23T02:09:34.506Z,10.08
2018-06-23T02:10:34.412Z,10.13
2018-06-23T02:11:34.350Z,10.13
2018-06-23T02:12:34.262Z,10.15
2018-06-23T02:13:34.193Z,10.08
2018-06-23T02:14:34.109Z,10.06
2018-06-23T02:15:34.035Z,10.07
2018-06-23T02:16:33.953Z,10.07
2018-06-23T02:17:33.884Z,10.07
2018-06-23T02:18:33.798Z,10.13
2018-06-23T02:19:33.735Z,10.11
2018-06-23T02:20:33.644Z,10.07
2018-06-23T02:21:33.578Z,10.08
2018-06-23T02:22:33.497Z,10.06
2018-06-23T02:23:33.425Z,10.07
2018-06-23T02:24:33.335Z,10.01
2018-06-23T02:25:33.269Z,10.03
2018-06-23T02:26:33.180Z,10.01
2018-06-23T02:27:33.116Z,10.06
2018-06-23T02:28:33.027Z,10.07
2018-06-23T02:29:32.955Z,10.06
2018-06-23T02:30:32.872Z,10.01
2018-06-23T02:31:32.802Z,10.11
2018-06-23T02:32:32.717Z,10.04
2018-06-23T02:33:32.658Z,10.08
2018-06-23T02:34:32.564Z,10.06
2018-06-23T02:35:32.496Z,10.08
2018-06-23T02:36:32.408Z,10.07
2018-06-23T02:37:32.341Z,10.07
2018-06-23T02:38:32.253Z,10.07
2018-06-23T02:39:32.185Z,10.11
2018-06-23T02:40:32.113Z,10.08
2018-06-23T02:41:32.032Z,10.08
2018-06-23T02:42:31.947Z,10.10
2018-06-23T02:43:31.875Z,10.03
2018-06-23T02:44:31.792Z,9.96
2018-06-23T02:45:31.721Z,10.04
2018-06-23T02:46:31.632Z,9.90
2018-06-23T02:47:31.567Z,10.00
2018-06-23T02:48:31.482Z,9.93
2018-06-23T02:49:31.414Z,9.90
2018-06-23T02:50:31.329Z,9.97
2018-06-23T02:51:31.257Z,9.97
2018-06-23T02:52:31.173Z,9.90
2018-06-23T02:53:31.108Z,9.96
2018-06-23T02:54:31.018Z,10.01
2018-06-23T02:55:30.950Z,9.96
2018-06-23T02:56:30.863Z,9.93
2018-06-23T02:57:30.794Z,9.98
2018-06-23T02:58:30.709Z,9.96
2018-06-23T02:59:30.638Z,9.97
2018-06-23T03:00:30.565Z,9.86
2018-06-23T03:01:30.497Z,9.97
2018-06-23T03:02:30.400Z,10.03
2018-06-23T03:03:30.337Z,10.01
2018-06-23T03:04:30.254Z,9.90
2018-06-23T03:05:30.177Z,9.93
2018-06-23T03:06:30.094Z,10.01
2018-06-23T03:07:30.024Z,9.96
2018-06-23T03:08:29.939Z,10.01
2018-06-23T03:09:29.916Z,10.01
2018-06-23T03:10:29.784Z,10.10
2018-06-23T03:11:29.714Z,9.98
2018-06-23T03:12:29.628Z,9.97
2018-06-23T03:13:29.556Z,10.00
2018-06-23T03:14:29.474Z,9.96
2018-06-23T03:15:29.408Z,10.00
2018-06-23T03:16:29.317Z,9.96
2018-06-23T03:17:29.251Z,9.92
2018-06-23T03:18:29.284Z,9.89
2018-06-23T03:19:29.094Z,9.96
2018-06-23T03:20:29.011Z,10.00
2018-06-23T03:21:28.933Z,9.98
2018-06-23T03:22:28.854Z,9.97
2018-06-23T03:23:28.787Z,9.85
2018-06-23T03:24:28.701Z,9.96
2018-06-23T03:25:28.630Z,9.90
2018-06-23T03:26:28.543Z,9.85
2018-06-23T03:27:28.474Z,9.90
2018-06-23T03:28:28.388Z,9.92
2018-06-23T03:29:28.323Z,9.89
2018-06-23T03:30:28.239Z,9.86
2018-06-23T03:31:28.166Z,10.01
2018-06-23T03:32:28.081Z,9.86
2018-06-23T03:33:28.012Z,9.93
2018-06-23T03:34:27.926Z,9.88
2018-06-23T03:35:27.856Z,9.89
2018-06-23T03:36:27.772Z,9.97
2018-06-23T03:37:27.707Z,9.92
2018-06-23T03:38:27.614Z,9.93
2018-06-23T03:39:27.548Z,9.86
2018-06-23T03:40:27.460Z,9.82
2018-06-23T03:41:27.387Z,9.82
2018-06-23T03:42:27.308Z,9.82
2018-06-23T03:43:27.239Z,9.79
2018-06-23T03:44:27.153Z,9.80
2018-06-23T03:45:27.085Z,9.92
2018-06-23T03:46:26.997Z,9.93
2018-06-23T03:47:27.929Z,9.86
2018-06-23T03:48:26.850Z,9.96
2018-06-23T03:49:26.770Z,9.98
2018-06-23T03:50:26.684Z,9.98
2018-06-23T03:51:26.620Z,9.98
2018-06-23T03:52:26.536Z,9.93
2018-06-23T03:53:26.460Z,10.03
2018-06-23T03:54:26.401Z,10.04
2018-06-23T03:55:26.344Z,10.10
2018-06-23T03:56:26.228Z,10.13
2018-06-23T03:57:26.254Z,10.10
2018-06-23T03:58:26.067Z,10.08
2018-06-23T03:59:26.066Z,10.10
2018-06-23T04:00:25.914Z,10.10
2018-06-23T04:01:25.868Z,10.10
2018-06-23T04:02:25.758Z,10.08
2018-06-23T04:03:25.783Z,10.21
2018-06-23T04:04:25.608Z,10.16
2018-06-23T04:05:25.591Z,10.22
2018-06-23T04:06:25.456Z,10.23
2018-06-23T04:07:25.402Z,10.22
2018-06-23T04:08:25.294Z,10.23
2018-06-23T04:09:25.309Z,10.25
2018-06-23T04:10:25.144Z,10.29
2018-06-23T04:11:25.121Z,10.33
2018-06-23T04:12:24.984Z,10.40
2018-06-23T04:13:24.929Z,10.37
2018-06-23T04:14:24.830Z,10.39
2018-06-23T04:15:24.839Z,10.37
2018-06-23T04:16:24.672Z,10.40
2018-06-23T04:17:24.647Z,10.40
2018-06-23T04:18:24.528Z,10.46
2018-06-23T04:19:24.560Z,10.43
2018-06-23T04:20:24.367Z,10.46
2018-06-23T04:21:24.366Z,10.46
2018-06-23T04:22:24.210Z,10.55
2018-06-23T04:23:24.177Z,10.49
2018-06-23T04:24:24.054Z,10.47
2018-06-23T04:25:23.984Z,10.55
2018-06-23T04:26:23.903Z,10.51
2018-06-23T04:27:23.898Z,10.55
2018-06-23T04:28:23.749Z,10.56
2018-06-23T04:29:23.672Z,10.56
2018-06-23T04:30:23.588Z,10.63
2018-06-23T04:31:23.611Z,10.65
2018-06-23T04:32:23.436Z,10.66
2018-06-23T04:33:23.369Z,10.65
2018-06-23T04:34:23.292Z,10.66
2018-06-23T04:35:23.234Z,10.67
2018-06-23T04:36:23.131Z,10.66
2018-06-23T04:37:23.059Z,10.67
2018-06-23T04:38:22.977Z,10.74
2018-06-23T04:39:22.954Z,10.74
2018-06-23T04:40:22.818Z,10.74
2018-06-23T04:41:22.762Z,10.88
2018-06-23T04:42:22.672Z,10.80
2018-06-23T04:43:22.672Z,10.92
2018-06-23T04:44:22.509Z,10.93
2018-06-23T04:45:22.484Z,10.91
2018-06-23T04:46:22.356Z,11.00
2018-06-23T04:47:22.392Z,11.00
2018-06-23T04:48:22.202Z,11.06
2018-06-23T04:49:22.200Z,11.08
2018-06-23T04:50:22.048Z,11.13
2018-06-23T04:51:22.009Z,11.26
2018-06-23T04:52:21.888Z,11.26
2018-06-23T04:53:21.926Z,11.28
2018-06-23T04:54:21.735Z,11.34
2018-06-23T04:55:21.668Z,11.38
2018-06-23T04:56:21.584Z,11.43
2018-06-23T04:57:21.538Z,11.50
2018-06-23T04:58:21.434Z,11.50
2018-06-23T04:59:21.453Z,11.64
2018-06-23T05:00:21.281Z,11.57
2018-06-23T05:01:21.210Z,11.68
2018-06-23T05:02:21.122Z,11.74
2018-06-23T05:03:21.064Z,11.72
2018-06-23T05:04:20.968Z,11.79
2018-06-23T05:05:20.978Z,11.83
2018-06-23T05:06:20.814Z,11.79
2018-06-23T05:07:20.777Z,11.90
2018-06-23T05:08:20.660Z,11.86
2018-06-23T05:09:20.592Z,11.94
2018-06-23T05:10:20.508Z,11.93
2018-06-23T05:11:20.500Z,11.95
2018-06-23T05:12:20.355Z,12.06
2018-06-23T05:13:20.311Z,12.11
2018-06-23T05:14:20.193Z,12.12
2018-06-23T05:15:20.232Z,12.19
2018-06-23T05:16:20.045Z,12.24
2018-06-23T05:17:20.028Z,12.26
2018-06-23T05:18:19.891Z,12.27
2018-06-23T05:19:19.840Z,12.33
2018-06-23T05:20:19.808Z,12.44
2018-06-23T05:21:19.750Z,12.46
2018-06-23T05:22:19.584Z,12.44
2018-06-23T05:23:19.515Z,12.53
2018-06-23T05:24:19.432Z,12.51
2018-06-23T05:25:19.474Z,12.59
2018-06-23T05:26:19.291Z,12.67
2018-06-23T05:27:19.277Z,12.69
2018-06-23T05:28:19.125Z,12.69
2018-06-23T05:29:19.089Z,12.70
2018-06-23T05:30:18.972Z,12.78
2018-06-23T05:31:18.997Z,12.79
2018-06-23T05:32:18.818Z,12.84
2018-06-23T05:33:18.811Z,12.84
2018-06-23T05:34:18.678Z,12.86
2018-06-23T05:35:18.614Z,12.86
2018-06-23T05:36:18.515Z,12.84
2018-06-23T05:37:18.521Z,12.89
2018-06-23T05:38:18.361Z,13.02
2018-06-23T05:39:18.428Z,13.04
2018-06-23T05:40:18.206Z,13.06
2018-06-23T05:41:18.245Z,13.04
2018-06-23T05:42:18.055Z,13.00
2018-06-23T05:43:17.985Z,13.04
2018-06-23T05:44:17.905Z,13.07
2018-06-23T05:45:17.828Z,13.15
2018-06-23T05:46:17.744Z,13.07
2018-06-23T05:47:17.774Z,13.11
2018-06-23T05:48:17.596Z,13.10
2018-06-23T05:49:17.527Z,13.19
2018-06-23T05:50:17.441Z,13.24
2018-06-23T05:51:17.403Z,13.19
2018-06-23T05:52:17.291Z,13.18
2018-06-23T05:53:17.300Z,13.28
2018-06-23T05:54:17.134Z,13.25
2018-06-23T05:55:17.110Z,13.32
2018-06-23T05:56:16.984Z,13.36
2018-06-23T05:57:17.016Z,13.25
2018-06-23T05:58:16.830Z,13.24
2018-06-23T05:59:16.832Z,13.29
2018-06-23T06:00:16.676Z,13.29
2018-06-23T06:01:16.645Z,13.25
2018-06-23T06:02:16.527Z,13.37
2018-06-23T06:03:16.636Z,13.40
2018-06-23T06:04:16.375Z,13.36
2018-06-23T06:05:16.444Z,13.37
2018-06-23T06:06:16.222Z,13.40
2018-06-23T06:07:16.254Z,13.40
2018-06-23T06:08:16.070Z,13.44
2018-06-23T06:09:16.077Z,13.52
2018-06-23T06:10:15.921Z,13.45
2018-06-23T06:11:16.996Z,13.48
2018-06-23T06:12:15.763Z,13.45
2018-06-23T06:13:15.884Z,13.44
2018-06-23T06:14:15.611Z,13.38
2018-06-23T06:15:15.695Z,13.48
2018-06-23T06:16:15.465Z,13.52
2018-06-23T06:17:15.506Z,13.55
2018-06-23T06:18:15.310Z,13.45
2018-06-23T06:19:15.311Z,13.61
2018-06-23T06:20:15.153Z,13.61
2018-06-23T06:21:15.132Z,13.70
2018-06-23T06:22:15.003Z,13.70
2018-06-23T06:23:15.134Z,13.77
2018-06-23T06:24:14.856Z,13.78
2018-06-23T06:25:14.958Z,13.87
2018-06-23T06:26:14.701Z,13.99
2018-06-23T06:27:14.757Z,13.96
2018-06-23T06:28:14.552Z,14.05
2018-06-23T06:29:14.663Z,14.10
2018-06-23T06:30:14.397Z,14.14
2018-06-23T06:31:14.499Z,14.17
2018-06-23T06:32:14.247Z,14.27
2018-06-23T06:33:14.282Z,14.29
2018-06-23T06:34:14.094Z,14.38
2018-06-23T06:35:14.196Z,14.44
2018-06-23T06:36:13.943Z,14.34
2018-06-23T06:37:14.010Z,14.47
2018-06-23T06:38:13.792Z,14.39
2018-06-23T06:39:13.916Z,14.38
2018-06-23T06:40:13.643Z,14.47
2018-06-23T06:41:13.722Z,14.59
2018-06-23T06:42:13.486Z,14.57
2018-06-23T06:43:13.529Z,14.54
2018-06-23T06:44:13.336Z,14.67
2018-06-23T06:45:13.444Z,14.69
2018-06-23T06:46:13.185Z,14.69
2018-06-23T06:47:13.253Z,14.68
2018-06-23T06:48:13.033Z,14.72
2018-06-23T06:49:13.160Z,14.71
2018-06-23T06:50:12.885Z,14.83
2018-06-23T06:51:12.979Z,14.80
2018-06-23T06:52:12.734Z,14.84
2018-06-23T06:53:12.787Z,14.72
2018-06-23T06:54:12.581Z,14.71
2018-06-23T06:55:12.696Z,14.78
2018-06-23T06:56:12.433Z,14.80
2018-06-23T06:57:12.576Z,14.84
2018-06-23T06:58:12.277Z,14.80
2018-06-23T06:59:12.317Z,14.83
2018-06-23T07:00:12.132Z,14.88
2018-06-23T07:01:12.056Z,14.90
2018-06-23T07:02:11.989Z,14.80
2018-06-23T07:03:12.034Z,14.87
2018-06-23T07:04:11.832Z,14.90
2018-06-23T07:05:12.974Z,14.98
2018-06-23T07:06:11.679Z,15.02
2018-06-23T07:07:11.756Z,15.10
2018-06-23T07:08:11.525Z,15.13
2018-06-23T07:09:11.562Z,15.21
2018-06-23T07:10:11.379Z,15.28
2018-06-23T07:11:16.081Z,15.34
2018-06-23T07:12:11.224Z,15.27
2018-06-23T07:13:11.286Z,15.26
2018-06-23T07:14:11.076Z,15.33
2018-06-23T07:15:11.194Z,15.33
2018-06-23T07:16:10.921Z,15.30
2018-06-23T07:17:11.001Z,15.39
2018-06-23T07:18:10.777Z,15.48
2018-06-23T07:19:10.917Z,15.51
2018-06-23T07:20:10.623Z,15.53
2018-06-23T07:21:10.724Z,15.57
2018-06-23T07:22:10.481Z,15.66
2018-06-23T07:23:10.538Z,15.76
2018-06-23T07:24:10.383Z,15.89
2018-06-23T07:25:10.342Z,15.89
2018-06-23T07:26:10.175Z,15.94
2018-06-23T07:27:11.279Z,16.01
2018-06-23T07:28:10.026Z,16.07
2018-06-23T07:29:10.062Z,16.03
2018-06-23T07:30:09.887Z,16.04
2018-06-23T07:31:09.872Z,16.08
2018-06-23T07:32:09.733Z,16.10
2018-06-23T07:33:09.792Z,16.12
2018-06-23T07:34:09.579Z,16.01
2018-06-23T07:35:09.743Z,16.03
2018-06-23T07:36:09.431Z,16.01
2018-06-23T07:37:09.501Z,16.01
2018-06-23T07:38:09.276Z,16.01
2018-06-23T07:39:09.415Z,16.00
2018-06-23T07:40:09.132Z,15.85
2018-06-23T07:41:09.052Z,15.79
2018-06-23T07:42:09.128Z,15.79
2018-06-23T07:43:08.904Z,15.79
2018-06-23T07:44:09.037Z,15.91
2018-06-23T07:45:08.756Z,16.04
2018-06-23T07:46:08.847Z,16.08
2018-06-23T07:47:08.607Z,15.96
2018-06-23T07:48:08.759Z,16.04
2018-06-23T07:49:08.464Z,16.07
2018-06-23T07:50:08.569Z,16.04
2018-06-23T07:51:08.494Z,15.99
2018-06-23T07:52:08.284Z,16.10
2018-06-23T07:53:08.164Z,16.07
2018-06-23T07:54:08.191Z,16.08
2018-06-23T07:55:08.007Z,16.18
2018-06-23T07:56:08.025Z,16.20
2018-06-23T07:57:07.861Z,16.22
2018-06-23T07:58:07.907Z,16.37
2018-06-23T07:59:07.713Z,16.30
2018-06-23T08:00:07.718Z,16.30
2018-06-23T08:01:07.566Z,16.34
2018-06-23T08:02:07.528Z,16.37
2018-06-23T08:03:07.420Z,16.35
2018-06-23T08:04:07.437Z,16.25
2018-06-23T08:05:07.266Z,16.26
2018-06-23T08:06:07.245Z,16.26
2018-06-23T08:07:07.121Z,16.40
2018-06-23T08:08:07.159Z,16.42
2018-06-23T08:09:06.972Z,16.29
2018-06-23T08:10:06.965Z,16.37
2018-06-23T08:11:06.824Z,16.30
2018-06-23T08:12:06.875Z,16.26
2018-06-23T08:13:06.676Z,16.41
2018-06-23T08:14:06.692Z,16.60
2018-06-23T08:15:06.532Z,16.60
2018-06-23T08:16:06.500Z,16.65
2018-06-23T08:17:06.378Z,16.66
2018-06-23T08:18:06.405Z,16.65
2018-06-23T08:19:06.229Z,16.67
2018-06-23T08:20:06.216Z,16.63
2018-06-23T08:21:06.082Z,16.63
2018-06-23T08:22:06.132Z,16.67
2018-06-23T08:23:05.931Z,16.89
2018-06-23T08:24:05.941Z,17.05
2018-06-23T08:25:05.798Z,17.14
2018-06-23T08:26:05.746Z,17.07
2018-06-23T08:27:05.640Z,17.05
2018-06-23T08:28:05.657Z,17.00
2018-06-23T08:29:05.496Z,17.02
2018-06-23T08:30:05.470Z,17.02
2018-06-23T08:31:05.345Z,17.02
2018-06-23T08:32:05.270Z,17.02
2018-06-23T08:33:05.284Z,17.13
2018-06-23T08:34:05.119Z,17.07
2018-06-23T08:35:05.091Z,17.07
2018-06-23T08:36:04.970Z,16.93
2018-06-23T08:37:05.002Z,16.95
2018-06-23T08:38:04.827Z,16.92
2018-06-23T08:39:04.754Z,16.84
2018-06-23T08:40:04.713Z,16.80
2018-06-23T08:41:04.603Z,16.75
2018-06-23T08:42:04.628Z,16.77
2018-06-23T08:43:04.456Z,16.73
2018-06-23T08:44:04.436Z,16.70
2018-06-23T08:45:04.312Z,16.78
2018-06-23T08:46:04.354Z,16.71
2018-06-23T08:47:04.161Z,16.73
2018-06-23T08:48:04.158Z,16.78
2018-06-23T08:49:04.084Z,16.96
2018-06-23T08:50:04.077Z,16.99
2018-06-23T08:51:03.868Z,17.10
2018-06-23T08:52:03.879Z,17.17
2018-06-23T08:53:03.715Z,17.26
2018-06-23T08:54:03.789Z,17.21
2018-06-23T08:55:03.569Z,17.48
2018-06-23T08:56:03.602Z,17.66
2018-06-23T08:57:03.434Z,17.58
2018-06-23T08:58:03.407Z,17.74
2018-06-23T08:59:03.273Z,17.74
2018-06-23T09:00:03.321Z,17.76
2018-06-23T09:01:03.132Z,17.70
2018-06-23T09:02:03.128Z,17.55
2018-06-23T09:03:02.979Z,17.39
2018-06-23T09:04:02.937Z,17.38
2018-06-23T09:05:02.849Z,17.28
2018-06-23T09:06:03.919Z,17.33
2018-06-23T09:07:02.697Z,17.21
2018-06-23T09:08:02.762Z,17.20
2018-06-23T09:09:02.549Z,17.28
2018-06-23T09:10:02.566Z,17.28
2018-06-23T09:11:02.401Z,17.38
2018-06-23T09:12:02.320Z,17.51
2018-06-23T09:13:02.436Z,17.53
2018-06-23T09:14:02.176Z,17.63
2018-06-23T09:15:02.196Z,17.66
2018-06-23T09:16:02.029Z,17.74
2018-06-23T09:17:02.111Z,17.70
2018-06-23T09:18:01.883Z,17.79
2018-06-23T09:19:01.919Z,17.92
2018-06-23T09:20:01.735Z,17.92
2018-06-23T09:21:01.727Z,18.10
2018-06-23T09:22:01.588Z,18.13
2018-06-23T09:23:01.638Z,18.19
2018-06-23T09:24:01.442Z,18.28
2018-06-23T09:25:01.446Z,18.19
2018-06-23T09:26:01.551Z,18.19
2018-06-23T09:27:03.530Z,18.25
2018-06-23T09:28:01.159Z,18.22
2018-06-23T09:29:01.170Z,18.11
2018-06-23T09:30:01.007Z,18.11
2018-06-23T09:31:00.974Z,18.09
2018-06-23T09:32:00.861Z,18.22
2018-06-23T09:33:00.885Z,18.35
2018-06-23T09:34:00.713Z,18.49
2018-06-23T09:35:00.795Z,18.40
2018-06-23T09:36:00.570Z,18.37
2018-06-23T09:37:00.496Z,18.55
2018-06-23T09:38:00.512Z,18.55
2018-06-23T09:39:00.350Z,18.55
2018-06-23T09:40:00.320Z,18.49
2018-06-23T09:41:00.204Z,18.62
2018-06-23T09:42:00.133Z,18.76
2018-06-23T09:43:00.137Z,18.76
2018-06-23T09:43:59.990Z,18.89
2018-06-23T09:45:00.451Z,19.02
2018-06-23T09:46:00.143Z,19.05
2018-06-23T09:46:59.783Z,19.11
2018-06-23T09:47:59.761Z,19.18
2018-06-23T09:48:59.621Z,19.08
2018-06-23T09:49:59.672Z,19.17
2018-06-23T09:50:59.478Z,19.13
2018-06-23T09:51:59.481Z,19.18
2018-06-23T09:52:59.335Z,19.27
2018-06-23T09:53:59.411Z,19.33
2018-06-23T09:54:59.191Z,19.35
2018-06-23T09:55:59.267Z,19.33
2018-06-23T09:56:59.046Z,19.50
2018-06-23T09:57:59.113Z,19.57
2018-06-23T09:58:58.901Z,19.61
2018-06-23T09:59:58.920Z,19.65
2018-06-23T10:00:58.755Z,19.79
2018-06-23T10:01:58.687Z,19.79
2018-06-23T10:02:58.739Z,19.63
2018-06-23T10:03:58.543Z,19.64
2018-06-23T10:04:58.547Z,19.51
2018-06-23T10:05:58.400Z,19.38
2018-06-23T10:06:58.461Z,19.31
2018-06-23T10:07:58.257Z,19.17
2018-06-23T10:08:58.268Z,19.18
2018-06-23T10:09:58.115Z,19.18
2018-06-23T10:10:58.175Z,19.15
2018-06-23T10:11:57.971Z,19.20
2018-06-23T10:12:57.989Z,19.31
2018-06-23T10:13:57.825Z,19.36
2018-06-23T10:14:57.901Z,19.31
2018-06-23T10:15:57.679Z,19.46
2018-06-23T10:16:57.711Z,19.42
2018-06-23T10:17:57.534Z,19.64
2018-06-23T10:18:57.620Z,19.63
2018-06-23T10:19:57.394Z,19.69
2018-06-23T10:20:57.435Z,19.79
2018-06-23T10:21:57.246Z,19.83
2018-06-23T10:22:57.340Z,19.91
2018-06-23T10:23:57.104Z,20.16
2018-06-23T10:24:57.148Z,20.13
2018-06-23T10:25:56.984Z,20.30
2018-06-23T10:26:56.962Z,20.38
2018-06-23T10:27:56.824Z,20.49
2018-06-23T10:28:56.869Z,20.57
2018-06-23T10:29:56.680Z,20.51
2018-06-23T10:30:56.630Z,20.54
2018-06-23T10:31:56.533Z,20.65
2018-06-23T10:32:56.587Z,20.68
2018-06-23T10:33:56.388Z,20.69
2018-06-23T10:34:56.405Z,20.76
2018-06-23T10:35:56.250Z,20.87
2018-06-23T10:36:56.306Z,20.87
2018-06-23T10:37:56.107Z,20.93
2018-06-23T10:38:56.120Z,20.98
2018-06-23T10:39:56.024Z,21.11
2018-06-23T10:40:56.024Z,21.16
2018-06-23T10:41:55.821Z,21.05
2018-06-23T10:42:55.845Z,21.21
2018-06-23T10:43:55.679Z,21.12
2018-06-23T10:44:55.754Z,21.14
2018-06-23T10:45:55.538Z,21.21
2018-06-23T10:46:55.566Z,21.11
2018-06-23T10:47:55.395Z,21.06
2018-06-23T10:48:55.474Z,21.05
2018-06-23T10:49:55.256Z,20.99
2018-06-23T10:50:55.283Z,21.06
2018-06-23T10:51:55.113Z,21.04
2018-06-23T10:52:55.192Z,20.94
2018-06-23T10:53:54.973Z,20.91
2018-06-23T10:54:55.001Z,20.87
2018-06-23T10:55:54.831Z,20.99
2018-06-23T10:56:54.914Z,20.94
2018-06-23T10:57:54.698Z,20.93
2018-06-23T10:58:54.723Z,20.90
2018-06-23T10:59:54.549Z,20.89
2018-06-23T11:00:54.636Z,20.90
2018-06-23T11:01:54.412Z,20.96
2018-06-23T11:02:54.338Z,20.99
2018-06-23T11:03:54.347Z,21.04
2018-06-23T11:04:54.258Z,20.91
2018-06-23T11:05:54.157Z,20.87
2018-06-23T11:06:54.059Z,20.80
2018-06-23T11:07:54.069Z,20.65
2018-06-23T11:08:53.915Z,20.66
2018-06-23T11:09:53.981Z,20.62
2018-06-23T11:10:53.780Z,20.64
2018-06-23T11:11:53.792Z,20.82
2018-06-23T11:12:53.635Z,20.83
2018-06-23T11:13:53.565Z,20.80
2018-06-23T11:14:53.499Z,20.76
2018-06-23T11:15:53.508Z,20.98
2018-06-23T11:16:53.352Z,21.02
2018-06-23T11:17:53.424Z,21.24
2018-06-23T11:18:53.211Z,21.30
2018-06-23T11:19:53.229Z,21.33
2018-06-23T11:20:53.069Z,21.41
2018-06-23T11:21:53.039Z,21.27
2018-06-23T11:22:52.930Z,21.27
2018-06-23T11:23:52.952Z,21.16
2018-06-23T11:24:52.789Z,21.09
2018-06-23T11:25:52.765Z,20.90
2018-06-23T11:26:52.649Z,20.74
2018-06-23T11:27:52.673Z,20.83
2018-06-23T11:28:52.508Z,20.83
2018-06-23T11:29:52.583Z,20.84
2018-06-23T11:30:52.367Z,20.82
2018-06-23T11:31:52.300Z,20.90
2018-06-23T11:32:52.292Z,20.96
2018-06-23T11:33:52.158Z,21.02
2018-06-23T11:34:52.213Z,20.99
2018-06-23T11:35:52.016Z,20.94
2018-06-23T11:36:52.019Z,20.96
2018-06-23T11:37:51.880Z,21.09
2018-06-23T11:38:51.928Z,20.99
2018-06-23T11:39:51.733Z,21.02
2018-06-23T11:40:51.843Z,21.14
2018-06-23T11:41:51.596Z,21.24
2018-06-23T11:42:51.583Z,21.31
2018-06-23T11:43:51.452Z,21.54
2018-06-23T11:44:51.559Z,21.56
2018-06-23T11:45:51.317Z,21.78
2018-06-23T11:46:51.367Z,21.82
2018-06-23T11:47:51.179Z,21.84
2018-06-23T11:48:51.279Z,21.92
2018-06-23T11:49:51.033Z,21.69
2018-06-23T11:50:51.089Z,21.67
2018-06-23T11:51:50.893Z,21.59
2018-06-23T11:52:51.001Z,21.53
2018-06-23T11:53:50.758Z,21.49
2018-06-23T11:54:50.807Z,21.46
2018-06-23T11:55:50.640Z,21.39
2018-06-23T11:56:50.621Z,21.24
2018-06-23T11:57:50.470Z,21.14
2018-06-23T11:58:51.166Z,21.04
2018-06-23T11:59:50.340Z,21.02
2018-06-23T12:00:50.335Z,21.02
2018-06-23T12:01:50.241Z,20.96
2018-06-23T12:02:50.147Z,20.87
2018-06-23T12:03:50.056Z,20.91
2018-06-23T12:04:49.982Z,20.86
2018-06-23T12:05:49.967Z,20.68
2018-06-23T12:06:49.846Z,20.87
2018-06-23T12:07:49.771Z,20.98
2018-06-23T12:08:49.702Z,21.04
2018-06-23T12:09:49.682Z,21.14
2018-06-23T12:10:49.562Z,21.11
2018-06-23T12:11:49.493Z,20.99
2018-06-23T12:12:49.498Z,21.23
2018-06-23T12:13:49.350Z,21.17
2018-06-23T12:14:49.308Z,21.17
2018-06-23T12:15:49.218Z,21.39
2018-06-23T12:16:49.219Z,21.45
2018-06-23T12:17:49.079Z,21.45
2018-06-23T12:18:49.027Z,21.46
2018-06-23T12:19:48.935Z,21.42
2018-06-23T12:20:48.938Z,21.31
2018-06-23T12:21:48.791Z,21.33
2018-06-23T12:22:48.748Z,21.23
2018-06-23T12:23:48.653Z,21.08
2018-06-23T12:24:48.668Z,21.11
2018-06-23T12:25:48.509Z,21.19
2018-06-23T12:26:48.470Z,21.16
2018-06-23T12:27:48.369Z,21.06
2018-06-23T12:28:48.382Z,21.01
2018-06-23T12:29:48.231Z,21.19
2018-06-23T12:30:48.194Z,21.12
2018-06-23T12:31:48.090Z,21.17
2018-06-23T12:32:48.103Z,21.19
2018-06-23T12:33:47.951Z,21.11
2018-06-23T12:34:47.913Z,21.14
2018-06-23T12:35:47.812Z,21.33
2018-06-23T12:36:47.743Z,21.41
2018-06-23T12:37:47.731Z,21.53
2018-06-23T12:38:47.600Z,21.57
2018-06-23T12:39:47.642Z,21.63
2018-06-23T12:40:47.463Z,21.64
2018-06-23T12:41:47.510Z,21.59
2018-06-23T12:42:47.322Z,21.72
2018-06-23T12:43:47.252Z,21.35
2018-06-23T12:44:47.266Z,21.42
2018-06-23T12:45:47.115Z,21.54
2018-06-23T12:46:47.073Z,21.54
2018-06-23T12:47:46.973Z,21.72
2018-06-23T12:48:46.986Z,21.76
2018-06-23T12:49:46.834Z,21.81
2018-06-23T12:50:46.790Z,21.94
2018-06-23T12:51:46.693Z,21.92
2018-06-23T12:52:46.711Z,21.98
2018-06-23T12:53:46.555Z,21.79
2018-06-23T12:54:46.518Z,21.75